Time;durP1;ratioP1;P1;durP2;ratioP2;P2;SDS_P1;SDS_P2;PMS_P1;PMS_P2;Temp;Humidity;BMP_temperature;BMP_pressure;BME280_temperature;BME280_humidity;BME280_pressure;Samples;Min_cycle;Max_cycle;Signal;HPM_P1;HPM_P2
2021/01/01 00:00:47;;;;;;;50.80;33.75;;;3.20;99.90;;;;;;5033425;28;20204;-74
2021/01/01 00:03:13;;;;;;;45.08;30.38;;;3.30;99.90;;;;;;5033958;28;20182;-74
2021/01/01 00:05:40;;;;;;;52.72;32.50;;;3.30;99.90;;;;;;5034448;28;20239;-75
2021/01/01 00:08:06;;;;;;;53.20;34.47;;;3.20;99.90;;;;;;5034672;28;20225;-74
2021/01/01 00:10:32;;;;;;;47.70;31.75;;;3.20;99.90;;;;;;5034904;28;20182;-75
2021/01/01 00:12:57;;;;;;;58.53;36.03;;;3.20;99.90;;;;;;5034721;28;20256;-75
2021/01/01 00:15:23;;;;;;;50.70;31.23;;;3.30;99.90;;;;;;5034216;28;20178;-75
2021/01/01 00:17:49;;;;;;;53.23;33.70;;;3.40;99.90;;;;;;5034655;28;20180;-74
2021/01/01 00:20:15;;;;;;;49.60;30.80;;;3.30;99.90;;;;;;5033376;28;20263;-74
2021/01/01 00:22:42;;;;;;;55.97;32.57;;;3.30;99.90;;;;;;5034468;28;20272;-74
2021/01/01 00:25:08;;;;;;;60.38;35.47;;;3.30;99.90;;;;;;5034418;28;20428;-75
2021/01/01 00:27:35;;;;;;;51.75;32.58;;;3.40;99.90;;;;;;5033693;28;20205;-74
2021/01/01 00:30:04;;;;;;;58.42;33.80;;;3.40;99.90;;;;;;5034324;28;20253;-75
2021/01/01 00:32:29;;;;;;;56.17;31.25;;;3.20;99.90;;;;;;5032912;28;20656;-75
2021/01/01 00:34:55;;;;;;;52.47;32.70;;;3.20;99.90;;;;;;5034315;28;20216;-74
2021/01/01 00:37:20;;;;;;;51.00;31.90;;;3.10;99.90;;;;;;5034017;28;20202;-75
2021/01/01 00:39:46;;;;;;;49.93;30.63;;;3.30;99.90;;;;;;5034139;28;20842;-74
2021/01/01 00:42:12;;;;;;;60.60;33.23;;;3.40;99.90;;;;;;5034236;28;20178;-75
2021/01/01 00:44:37;;;;;;;56.17;33.43;;;3.40;99.90;;;;;;5032840;28;20208;-74
2021/01/01 00:47:03;;;;;;;58.87;31.33;;;3.60;99.90;;;;;;5033328;28;20221;-74
2021/01/01 00:49:29;;;;;;;56.67;31.73;;;3.40;99.90;;;;;;5034136;28;20185;-76
2021/01/01 00:51:54;;;;;;;51.80;32.27;;;3.30;99.90;;;;;;5032652;28;20185;-75
2021/01/01 00:54:20;;;;;;;58.30;31.83;;;3.20;99.90;;;;;;5034009;28;20177;-74
2021/01/01 00:56:45;;;;;;;61.73;33.90;;;3.30;99.90;;;;;;5033473;28;20226;-75
2021/01/01 00:59:11;;;;;;;53.87;32.87;;;3.30;99.90;;;;;;5033778;28;20708;-74
2021/01/01 01:01:37;;;;;;;62.37;35.37;;;3.40;99.90;;;;;;5033790;28;20276;-74
2021/01/01 01:04:03;;;;;;;64.60;36.50;;;3.30;99.90;;;;;;5033572;28;20191;-74
2021/01/01 01:06:29;;;;;;;62.03;34.43;;;3.40;99.90;;;;;;5033153;28;20216;-74
2021/01/01 01:08:55;;;;;;;63.25;34.25;;;3.50;99.90;;;;;;5033598;28;20184;-75
2021/01/01 01:11:30;;;;;;;72.57;35.40;;;3.40;99.90;;;;;;5032354;28;20221;-73
2021/01/01 01:13:58;;;;;;;58.80;33.42;;;3.40;99.90;;;;;;5033571;28;20559;-74
2021/01/01 01:16:28;;;;;;;60.20;34.83;;;3.40;99.90;;;;;;5031875;28;20216;-74
2021/01/01 01:18:55;;;;;;;60.90;34.58;;;3.30;99.90;;;;;;5033347;28;20649;-76
2021/01/01 01:21:21;;;;;;;64.07;34.22;;;3.50;99.90;;;;;;5031981;28;20185;-74
2021/01/01 01:23:47;;;;;;;66.45;35.97;;;3.60;99.90;;;;;;5033334;28;20189;-75
2021/01/01 01:26:13;;;;;;;60.30;34.80;;;3.50;99.90;;;;;;5032991;28;20693;-74
2021/01/01 01:28:38;;;;;;;66.10;35.90;;;3.50;99.90;;;;;;5033460;28;20424;-74
2021/01/01 01:31:04;;;;;;;64.00;33.77;;;3.40;99.90;;;;;;5032199;28;20170;-74
2021/01/01 01:33:31;;;;;;;69.33;34.67;;;3.30;99.90;;;;;;5033283;28;20660;-75
2021/01/01 01:35:57;;;;;;;68.22;34.70;;;3.40;99.90;;;;;;5032930;28;20240;-74
2021/01/01 01:38:23;;;;;;;68.47;34.65;;;3.40;99.90;;;;;;5032076;28;20190;-74
2021/01/01 01:40:48;;;;;;;65.77;35.33;;;3.30;99.90;;;;;;5033178;28;20615;-75
2021/01/01 01:43:14;;;;;;;64.33;36.23;;;3.30;99.90;;;;;;5032003;28;20240;-74
2021/01/01 01:45:40;;;;;;;64.82;32.75;;;3.40;99.90;;;;;;5032591;28;20192;-74
2021/01/01 01:48:11;;;;;;;73.60;34.30;;;3.30;99.90;;;;;;5032976;28;20297;-75
2021/01/01 01:50:36;;;;;;;67.25;34.20;;;3.60;99.90;;;;;;5033189;28;20174;-75
2021/01/01 01:53:02;;;;;;;70.23;34.73;;;3.40;99.90;;;;;;5032988;28;20182;-74
2021/01/01 01:55:29;;;;;;;78.70;36.37;;;3.60;99.90;;;;;;5032585;28;20178;-74
2021/01/01 01:57:57;;;;;;;74.68;34.08;;;3.30;99.90;;;;;;5032933;28;20204;-73
2021/01/01 02:02:55;;;;;;;73.68;36.38;;;3.40;99.90;;;;;;5033149;28;20178;-74
2021/01/01 02:05:21;;;;;;;82.50;38.42;;;3.30;99.90;;;;;;5031227;28;20594;-75
2021/01/01 02:07:47;;;;;;;68.47;34.55;;;3.50;99.90;;;;;;5032542;28;20205;-77
2021/01/01 02:10:13;;;;;;;63.83;33.10;;;3.50;99.90;;;;;;5031663;28;20252;-74
2021/01/01 02:12:39;;;;;;;59.13;28.87;;;3.50;99.90;;;;;;5032992;28;20608;-75
2021/01/01 02:15:05;;;;;;;60.40;30.52;;;3.40;99.90;;;;;;5032760;28;20889;-74
2021/01/01 02:17:31;;;;;;;63.92;29.85;;;3.40;99.90;;;;;;5032328;28;20201;-75
2021/01/01 02:20:05;;;;;;;53.70;29.97;;;3.40;99.90;;;;;;5032774;28;20185;-74
2021/01/01 02:22:35;;;;;;;64.28;31.58;;;3.30;99.90;;;;;;5032859;28;20176;-74
2021/01/01 02:25:01;;;;;;;59.38;29.90;;;3.40;99.90;;;;;;5033363;28;20532;-74
2021/01/01 02:27:27;;;;;;;57.13;27.77;;;3.40;99.90;;;;;;5034856;28;20686;-74
2021/01/01 02:29:53;;;;;;;57.05;28.13;;;3.40;99.90;;;;;;5036571;28;20176;-75
2021/01/01 02:32:18;;;;;;;62.40;29.50;;;3.50;99.90;;;;;;5036661;28;20201;-74
2021/01/01 02:34:44;;;;;;;55.33;28.20;;;3.40;99.90;;;;;;5036536;28;20173;-75
2021/01/01 02:37:10;;;;;;;56.80;28.07;;;3.40;99.90;;;;;;5036034;28;20201;-75
2021/01/01 02:39:37;;;;;;;59.03;28.90;;;3.10;99.90;;;;;;5036517;28;20188;-75
2021/01/01 02:42:04;;;;;;;56.08;28.85;;;3.10;99.90;;;;;;5036470;28;20169;-74
2021/01/01 02:44:29;;;;;;;60.88;27.95;;;3.10;99.90;;;;;;5035266;28;20178;-75
2021/01/01 02:47:02;;;;;;;48.37;27.33;;;3.40;99.90;;;;;;5035711;28;20764;-74
2021/01/01 02:49:28;;;;;;;57.65;29.20;;;3.30;99.90;;;;;;5036329;28;20181;-76
2021/01/01 02:51:54;;;;;;;48.90;27.40;;;3.30;99.90;;;;;;5036002;28;20178;-76
2021/01/01 02:54:19;;;;;;;51.07;26.77;;;3.20;99.90;;;;;;5036158;28;20177;-77
2021/01/01 02:56:45;;;;;;;51.00;27.40;;;3.20;99.90;;;;;;5035783;28;20208;-75
2021/01/01 02:59:11;;;;;;;48.77;26.80;;;3.10;99.90;;;;;;5036097;28;20177;-75
2021/01/01 03:01:37;;;;;;;42.67;25.50;;;3.00;99.90;;;;;;5034775;28;20181;-75
2021/01/01 03:04:02;;;;;;;47.40;24.17;;;3.10;99.90;;;;;;5035755;28;20236;-74
2021/01/01 03:06:28;;;;;;;42.67;22.47;;;3.10;99.90;;;;;;5035470;28;20659;-75
2021/01/01 03:08:54;;;;;;;48.27;28.67;;;3.10;99.90;;;;;;5034517;28;20586;-74
2021/01/01 03:11:20;;;;;;;43.70;25.17;;;3.10;99.90;;;;;;5034606;28;20525;-75
2021/01/01 03:13:45;;;;;;;44.60;25.00;;;2.90;99.90;;;;;;5034653;28;20194;-75
2021/01/01 03:16:11;;;;;;;43.60;24.00;;;3.10;99.90;;;;;;5035163;28;20436;-75
2021/01/01 03:18:37;;;;;;;46.00;27.43;;;2.90;99.90;;;;;;5034440;28;20184;-75
2021/01/01 03:21:03;;;;;;;42.23;26.60;;;2.90;99.90;;;;;;5035708;28;20227;-75
2021/01/01 03:23:28;;;;;;;48.40;27.08;;;3.00;99.90;;;;;;5035629;28;20217;-74
2021/01/01 03:25:54;;;;;;;48.23;25.00;;;3.00;99.90;;;;;;5035189;28;20201;-74
2021/01/01 03:28:20;;;;;;;52.77;24.27;;;3.00;99.90;;;;;;5035162;28;20217;-74
2021/01/01 03:30:45;;;;;;;45.27;25.33;;;3.10;99.90;;;;;;5035811;28;20169;-75
2021/01/01 03:33:11;;;;;;;46.60;24.83;;;3.00;99.90;;;;;;5035690;28;20173;-75
2021/01/01 03:35:36;;;;;;;44.43;23.60;;;2.90;99.90;;;;;;5034984;28;20684;-74
2021/01/01 03:38:02;;;;;;;41.20;24.73;;;2.90;99.90;;;;;;5033137;28;20189;-75
2021/01/01 03:40:28;;;;;;;48.13;24.85;;;3.00;99.90;;;;;;5033993;28;20188;-75
2021/01/01 03:42:53;;;;;;;39.87;23.70;;;2.90;99.90;;;;;;5035434;28;20181;-75
2021/01/01 03:45:19;;;;;;;44.70;24.40;;;3.00;99.90;;;;;;5035151;28;20182;-74
2021/01/01 03:47:45;;;;;;;41.47;24.37;;;3.00;99.90;;;;;;5033471;28;20693;-74
2021/01/01 03:50:11;;;;;;;44.70;25.20;;;3.00;99.90;;;;;;5035004;28;20173;-75
2021/01/01 03:52:36;;;;;;;39.10;25.10;;;3.00;99.90;;;;;;5034959;28;20201;-75
2021/01/01 03:55:02;;;;;;;41.80;24.70;;;3.10;99.90;;;;;;5034977;28;20470;-74
2021/01/01 03:57:28;;;;;;;47.38;25.50;;;3.00;99.90;;;;;;5034610;28;20192;-74
2021/01/01 03:59:53;;;;;;;42.87;23.13;;;3.10;99.90;;;;;;5034837;28;20177;-75
2021/01/01 04:02:19;;;;;;;48.43;25.80;;;3.10;99.90;;;;;;5034832;28;20220;-75
2021/01/01 04:04:44;;;;;;;43.60;22.90;;;3.00;99.90;;;;;;5034736;28;20174;-75
2021/01/01 04:07:10;;;;;;;45.30;26.33;;;3.00;99.90;;;;;;5034302;28;20288;-74
2021/01/01 04:09:36;;;;;;;44.47;24.40;;;2.90;99.90;;;;;;5034699;28;20552;-75
2021/01/01 04:12:02;;;;;;;47.20;25.73;;;2.90;99.90;;;;;;5034733;28;20181;-75
2021/01/01 04:14:27;;;;;;;40.65;24.45;;;2.90;99.90;;;;;;5034696;28;20183;-75
2021/01/01 04:16:53;;;;;;;43.77;24.83;;;3.00;99.90;;;;;;5034079;28;20194;-74
2021/01/01 04:19:18;;;;;;;40.77;24.73;;;3.00;99.90;;;;;;5034637;28;20188;-74
2021/01/01 04:21:47;;;;;;;46.63;25.03;;;2.80;99.90;;;;;;5034746;28;20575;-74
2021/01/01 04:24:17;;;;;;;43.78;24.50;;;3.10;99.90;;;;;;5034844;28;20515;-75
2021/01/01 04:26:43;;;;;;;45.00;27.50;;;3.00;99.90;;;;;;5033857;28;20220;-74
2021/01/01 04:29:09;;;;;;;46.17;25.77;;;3.10;99.90;;;;;;5034401;28;20174;-75
2021/01/01 04:31:36;;;;;;;43.23;26.03;;;3.00;99.90;;;;;;5034411;28;20219;-74
2021/01/01 04:34:03;;;;;;;45.85;26.45;;;2.90;99.90;;;;;;5034382;28;20180;-74
2021/01/01 04:36:28;;;;;;;51.30;28.58;;;2.80;99.90;;;;;;5033931;28;20197;-73
2021/01/01 04:38:54;;;;;;;47.53;25.10;;;2.70;99.90;;;;;;5034376;28;20181;-75
2021/01/01 04:41:21;;;;;;;49.77;25.17;;;3.00;99.90;;;;;;5034190;28;20172;-74
2021/01/01 04:43:50;;;;;;;47.90;25.85;;;3.10;99.90;;;;;;5034373;28;20434;-75
2021/01/01 04:46:16;;;;;;;50.55;26.88;;;3.20;99.90;;;;;;5033555;28;20264;-74
2021/01/01 04:48:46;;;;;;;48.85;27.83;;;3.20;99.90;;;;;;5032756;28;20183;-75
2021/01/01 04:51:12;;;;;;;45.88;25.15;;;3.10;99.90;;;;;;5033920;28;20207;-75
2021/01/01 04:53:40;;;;;;;45.38;26.08;;;3.00;99.90;;;;;;5034002;28;20260;-75
2021/01/01 04:56:06;;;;;;;45.65;29.33;;;2.90;99.90;;;;;;5033550;28;20248;-74
2021/01/01 04:58:33;;;;;;;53.22;28.20;;;3.00;99.90;;;;;;5033993;28;20189;-74
2021/01/01 05:00:59;;;;;;;46.47;27.60;;;3.00;99.90;;;;;;5033627;28;20173;-74
2021/01/01 05:03:25;;;;;;;48.03;27.53;;;3.00;99.90;;;;;;5032505;28;20180;-74
2021/01/01 05:05:54;;;;;;;55.27;30.33;;;3.10;99.90;;;;;;5033290;28;20521;-75
2021/01/01 05:08:21;;;;;;;54.03;31.05;;;2.90;99.90;;;;;;5033524;28;20459;-74
2021/01/01 05:10:48;;;;;;;47.97;27.63;;;2.90;99.90;;;;;;5032280;28;20581;-75
2021/01/01 05:13:15;;;;;;;54.60;29.75;;;2.80;99.90;;;;;;5033359;28;20649;-75
2021/01/01 05:15:42;;;;;;;54.03;28.30;;;2.80;99.90;;;;;;5031762;28;20239;-75
2021/01/01 05:18:24;;;;;;;48.72;29.63;;;2.70;99.90;;;;;;5033549;28;20175;-75
2021/01/01 05:20:56;;;;;;;54.05;32.70;;;2.80;99.90;;;;;;5033505;28;20189;-75
2021/01/01 05:23:23;;;;;;;62.33;29.60;;;2.70;99.90;;;;;;5033324;28;20203;-75
2021/01/01 05:26:11;;;;;;;58.60;32.45;;;2.60;99.90;;;;;;5032980;28;20202;-75
2021/01/01 05:28:49;;;;;;;55.97;31.02;;;2.70;99.90;;;;;;5033245;28;20266;-74
2021/01/01 05:31:23;;;;;;;61.55;31.65;;;2.60;99.90;;;;;;5033236;28;20168;-74
2021/01/01 05:34:02;;;;;;;58.88;32.00;;;2.70;99.90;;;;;;5033280;28;20169;-76
2021/01/01 05:36:38;;;;;;;61.83;32.60;;;2.90;99.90;;;;;;5033084;28;20205;-74
2021/01/01 05:39:13;;;;;;;55.47;33.35;;;2.80;99.90;;;;;;5033444;28;20526;-75
2021/01/01 05:41:41;;;;;;;58.08;33.65;;;2.80;99.90;;;;;;5033365;28;20541;-74
2021/01/01 05:44:14;;;;;;;55.85;31.98;;;2.80;99.90;;;;;;5033070;28;20191;-74
2021/01/01 05:46:55;;;;;;;62.65;33.00;;;2.70;99.90;;;;;;5032687;28;20626;-76
2021/01/01 05:49:22;;;;;;;58.67;32.80;;;2.70;99.90;;;;;;5031820;28;20231;-75
2021/01/01 05:52:07;;;;;;;59.67;32.72;;;2.80;99.90;;;;;;5033013;28;20261;-74
2021/01/01 05:54:41;;;;;;;58.13;33.47;;;2.60;99.90;;;;;;5033118;28;20564;-74
2021/01/01 05:57:09;;;;;;;54.38;30.88;;;2.80;99.90;;;;;;5032611;28;20273;-75
2021/01/01 05:59:42;;;;;;;61.08;32.40;;;2.80;99.90;;;;;;5032936;28;20174;-75
2021/01/01 06:02:09;;;;;;;60.13;31.67;;;2.80;99.90;;;;;;5033943;28;20196;-75
2021/01/01 06:04:36;;;;;;;60.40;33.45;;;2.90;99.90;;;;;;5035745;28;20187;-75
2021/01/01 06:07:07;;;;;;;66.47;34.10;;;2.90;99.90;;;;;;5035323;28;20772;-75
2021/01/01 06:09:34;;;;;;;62.53;34.38;;;3.00;99.90;;;;;;5036870;28;20544;-75
2021/01/01 06:12:11;;;;;;;66.53;34.92;;;3.00;99.90;;;;;;5037043;28;20580;-74
2021/01/01 06:14:45;;;;;;;62.90;37.33;;;3.10;99.90;;;;;;5036834;28;20581;-75
2021/01/01 06:17:10;;;;;;;70.55;36.92;;;3.10;99.90;;;;;;5036405;28;20191;-75
2021/01/01 06:19:50;;;;;;;70.00;34.77;;;3.10;99.90;;;;;;5036661;28;20341;-75
2021/01/01 06:22:21;;;;;;;65.78;35.72;;;3.10;99.90;;;;;;5037058;28;20178;-75
2021/01/01 06:24:55;;;;;;;70.45;37.42;;;3.00;99.90;;;;;;5036901;28;20633;-75
2021/01/01 06:27:32;;;;;;;63.85;33.28;;;3.20;99.90;;;;;;5035188;28;20226;-76
2021/01/01 06:30:07;;;;;;;63.20;35.45;;;3.20;99.90;;;;;;5036692;28;20181;-75
2021/01/01 06:32:33;;;;;;;64.80;34.88;;;3.20;99.90;;;;;;5036670;28;20176;-75
2021/01/01 06:35:17;;;;;;;63.00;34.30;;;3.30;99.90;;;;;;5036601;28;20281;-74
2021/01/01 06:37:46;;;;;;;60.33;33.60;;;3.20;99.90;;;;;;5034838;28;20251;-75
2021/01/01 06:40:20;;;;;;;62.20;35.65;;;3.20;99.90;;;;;;5036386;28;20223;-74
2021/01/01 06:42:55;;;;;;;69.25;36.47;;;3.10;99.90;;;;;;5036439;28;20207;-74
2021/01/01 06:45:35;;;;;;;59.78;35.55;;;3.00;99.90;;;;;;5035989;28;20237;-75
2021/01/01 06:48:03;;;;;;;65.25;35.22;;;3.00;99.90;;;;;;5036072;28;20212;-74
2021/01/01 06:50:30;;;;;;;64.65;34.38;;;3.00;99.90;;;;;;5036256;28;20172;-75
2021/01/01 06:53:11;;;;;;;60.40;35.42;;;3.10;99.90;;;;;;5035018;28;20181;-75
2021/01/01 06:55:38;;;;;;;57.55;33.60;;;3.00;99.90;;;;;;5035750;28;20173;-76
2021/01/01 06:58:05;;;;;;;59.15;33.20;;;2.90;99.90;;;;;;5036040;28;20202;-75
2021/01/01 07:00:49;;;;;;;60.00;33.80;;;3.10;99.90;;;;;;5036074;28;20173;-74
2021/01/01 07:03:27;;;;;;;66.15;34.55;;;2.90;99.90;;;;;;5036054;28;20193;-74
2021/01/01 07:06:16;;;;;;;53.85;33.10;;;2.80;99.90;;;;;;5034116;28;20201;-74
2021/01/01 07:08:42;;;;;;;56.55;31.52;;;2.70;99.90;;;;;;5034444;28;20718;-75
2021/01/01 07:11:11;;;;;;;55.10;32.10;;;2.80;99.90;;;;;;5035852;28;20258;-74
2021/01/01 07:13:45;;;;;;;58.17;31.20;;;2.90;99.90;;;;;;5034360;28;20181;-75
2021/01/01 07:16:11;;;;;;;54.35;30.40;;;2.80;99.90;;;;;;5035038;28;20202;-75
2021/01/01 07:18:37;;;;;;;61.65;33.75;;;2.70;99.90;;;;;;5034428;28;20185;-75
2021/01/01 07:21:05;;;;;;;60.50;32.37;;;2.80;99.90;;;;;;5035755;28;20568;-74
2021/01/01 07:23:31;;;;;;;55.70;30.65;;;2.90;99.90;;;;;;5035789;28;20178;-75
2021/01/01 07:25:57;;;;;;;62.10;31.98;;;2.90;99.90;;;;;;5035084;28;20558;-73
2021/01/01 07:28:24;;;;;;;60.30;33.08;;;2.70;99.90;;;;;;5035417;28;20206;-75
2021/01/01 07:30:51;;;;;;;57.30;30.85;;;2.80;99.90;;;;;;5035332;28;20227;-75
2021/01/01 07:33:21;;;;;;;53.40;30.50;;;2.70;99.90;;;;;;5035502;28;20182;-74
2021/01/01 07:35:53;;;;;;;57.42;32.75;;;2.70;99.90;;;;;;5035029;28;20200;-75
2021/01/01 07:38:19;;;;;;;54.97;32.13;;;2.70;99.90;;;;;;5035249;28;20232;-75
2021/01/01 07:40:45;;;;;;;49.53;29.58;;;2.60;99.90;;;;;;5033978;28;20641;-75
2021/01/01 07:43:11;;;;;;;49.75;29.95;;;2.60;99.90;;;;;;5035568;28;20181;-74
2021/01/01 07:45:37;;;;;;;56.63;30.77;;;2.90;99.90;;;;;;5034954;28;20179;-76
2021/01/01 07:48:03;;;;;;;51.63;28.80;;;2.90;99.90;;;;;;5033884;28;20548;-75
2021/01/01 07:50:31;;;;;;;55.05;30.05;;;2.70;99.90;;;;;;5035022;28;20173;-75
2021/01/01 07:53:07;;;;;;;49.90;28.50;;;2.70;99.90;;;;;;5033920;28;20187;-75
2021/01/01 07:55:34;;;;;;;53.70;31.50;;;2.80;99.90;;;;;;5033642;28;20593;-75
2021/01/01 07:58:01;;;;;;;48.17;28.08;;;2.80;99.90;;;;;;5033630;28;20597;-74
2021/01/01 08:00:35;;;;;;;49.83;27.23;;;2.80;99.90;;;;;;5033474;28;20195;-75
2021/01/01 08:03:01;;;;;;;51.88;29.73;;;2.80;99.90;;;;;;5035066;28;20173;-74
2021/01/01 08:05:27;;;;;;;50.83;29.13;;;2.90;99.90;;;;;;5033259;28;20192;-74
2021/01/01 08:07:53;;;;;;;50.45;27.63;;;2.80;99.90;;;;;;5034818;28;20587;-75
2021/01/01 08:10:32;;;;;;;46.03;26.52;;;2.80;99.90;;;;;;5033477;28;20178;-74
2021/01/01 08:12:58;;;;;;;46.78;27.33;;;2.80;99.90;;;;;;5034653;28;20174;-75
2021/01/01 08:15:31;;;;;;;46.83;27.20;;;2.80;99.90;;;;;;5033053;28;20196;-75
2021/01/01 08:18:20;;;;;;;44.47;26.48;;;2.90;99.90;;;;;;5034468;28;20227;-75
2021/01/01 08:20:48;;;;;;;41.83;26.70;;;2.80;99.90;;;;;;5034467;28;20182;-75
2021/01/01 08:23:18;;;;;;;45.05;27.42;;;2.90;99.90;;;;;;5033281;28;20185;-75
2021/01/01 08:25:46;;;;;;;49.20;27.17;;;3.00;99.90;;;;;;5033482;28;20213;-74
2021/01/01 08:28:17;;;;;;;48.35;27.13;;;2.90;99.90;;;;;;5034347;28;20251;-75
2021/01/01 08:30:43;;;;;;;51.03;28.85;;;3.10;99.90;;;;;;5034356;28;20173;-75
2021/01/01 08:33:10;;;;;;;44.58;26.80;;;3.10;99.90;;;;;;5034306;28;20269;-74
2021/01/01 08:35:36;;;;;;;45.88;27.25;;;2.90;99.90;;;;;;5033850;28;20178;-75
2021/01/01 08:38:16;;;;;;;47.70;27.07;;;2.90;99.90;;;;;;5034328;28;20637;-74
2021/01/01 08:40:43;;;;;;;38.72;24.67;;;3.10;99.90;;;;;;5034179;28;20509;-76
2021/01/01 08:43:09;;;;;;;41.63;25.77;;;2.90;99.90;;;;;;5034289;28;20170;-75
2021/01/01 08:45:37;;;;;;;43.77;25.93;;;3.00;99.90;;;;;;5032498;28;20219;-75
2021/01/01 08:48:10;;;;;;;43.03;25.60;;;3.10;99.90;;;;;;5032562;28;20269;-75
2021/01/01 08:50:43;;;;;;;42.88;24.85;;;3.20;99.90;;;;;;5043812;28;20671;-74
2021/01/01 08:53:09;;;;;;;40.63;25.70;;;3.30;99.90;;;;;;5052600;28;20192;-74
2021/01/01 08:55:34;;;;;;;36.40;23.60;;;3.40;99.90;;;;;;5049162;28;20182;-74
2021/01/01 08:58:14;;;;;;;39.60;24.77;;;3.30;99.90;;;;;;5053887;28;20184;-75
2021/01/01 09:00:43;;;;;;;42.38;24.85;;;3.10;99.90;;;;;;5053848;28;20624;-74
2021/01/01 09:03:09;;;;;;;45.40;27.10;;;3.10;99.90;;;;;;5053738;28;20185;-74
2021/01/01 09:05:35;;;;;;;44.88;24.67;;;3.20;99.90;;;;;;5053375;28;20626;-75
2021/01/01 09:08:15;;;;;;;44.97;25.83;;;3.30;99.90;;;;;;5053639;28;20208;-74
2021/01/01 09:10:45;;;;;;;38.60;25.30;;;3.10;99.90;;;;;;5053496;28;20181;-74
2021/01/01 09:13:15;;;;;;;38.85;25.50;;;3.10;99.90;;;;;;5053481;28;20170;-74
2021/01/01 09:15:41;;;;;;;43.40;26.10;;;3.10;99.90;;;;;;5053078;28;20166;-74
2021/01/01 09:18:08;;;;;;;44.30;25.30;;;3.10;99.90;;;;;;5053544;28;20693;-73
2021/01/01 09:20:35;;;;;;;36.95;25.20;;;3.10;99.90;;;;;;5053366;28;20408;-74
2021/01/01 09:23:02;;;;;;;38.75;25.48;;;3.10;99.90;;;;;;5053275;28;20177;-74
2021/01/01 09:25:29;;;;;;;47.15;25.45;;;3.20;99.90;;;;;;5052977;28;20303;-75
2021/01/01 09:27:55;;;;;;;44.60;27.48;;;3.40;99.90;;;;;;5053377;28;20255;-75
2021/01/01 09:30:26;;;;;;;43.25;25.30;;;3.30;99.90;;;;;;5053466;28;20637;-75
2021/01/01 09:32:55;;;;;;;42.58;26.65;;;3.20;99.90;;;;;;5053365;28;20181;-74
2021/01/01 09:35:21;;;;;;;43.38;26.02;;;3.30;99.90;;;;;;5039002;28;20181;-74
2021/01/01 09:37:51;;;;;;;48.55;26.77;;;3.40;99.90;;;;;;5032737;28;20247;-75
2021/01/01 09:40:18;;;;;;;45.92;27.38;;;3.50;99.90;;;;;;5033297;28;20181;-74
2021/01/01 09:42:44;;;;;;;53.65;25.75;;;3.40;99.90;;;;;;5033323;28;20239;-74
2021/01/01 09:45:11;;;;;;;39.10;24.35;;;3.50;99.90;;;;;;5034942;28;20222;-75
2021/01/01 09:47:36;;;;;;;38.20;25.02;;;3.60;99.90;;;;;;5042536;28;20209;-75
2021/01/01 09:50:04;;;;;;;39.40;24.13;;;3.50;99.90;;;;;;5044354;28;20641;-74
2021/01/01 09:52:30;;;;;;;44.08;26.17;;;3.60;99.90;;;;;;5044263;28;20416;-74
2021/01/01 09:54:55;;;;;;;47.87;28.70;;;3.60;99.90;;;;;;5053157;28;20184;-74
2021/01/01 09:57:21;;;;;;;44.53;26.53;;;3.60;99.90;;;;;;5052537;28;20426;-74
2021/01/01 09:59:47;;;;;;;48.63;27.93;;;3.60;99.90;;;;;;5052995;28;20188;-73
2021/01/01 10:02:12;;;;;;;46.40;27.93;;;3.70;99.90;;;;;;5052778;28;20275;-74
2021/01/01 10:04:38;;;;;;;45.90;26.93;;;3.70;99.90;;;;;;5052909;28;20168;-74
2021/01/01 10:07:03;;;;;;;44.93;27.10;;;3.70;99.90;;;;;;5052350;28;20215;-74
2021/01/01 10:09:29;;;;;;;46.07;28.70;;;3.60;99.90;;;;;;5051490;28;20512;-73
2021/01/01 10:11:57;;;;;;;44.13;27.03;;;3.60;99.90;;;;;;5052828;28;20170;-73
2021/01/01 10:14:23;;;;;;;44.55;28.08;;;3.70;99.90;;;;;;5052973;28;20539;-74
2021/01/01 10:16:49;;;;;;;41.27;26.53;;;3.70;99.90;;;;;;5051096;28;20209;-73
2021/01/01 10:19:16;;;;;;;46.92;26.70;;;3.60;99.90;;;;;;5052701;28;20447;-75
2021/01/01 10:21:43;;;;;;;46.97;27.25;;;3.70;99.90;;;;;;5051337;28;20192;-75
2021/01/01 10:24:09;;;;;;;41.67;25.27;;;3.90;99.90;;;;;;5051402;28;20182;-74
2021/01/01 10:26:35;;;;;;;50.50;28.53;;;3.90;99.90;;;;;;5052379;28;20696;-74
2021/01/01 10:29:00;;;;;;;52.57;29.40;;;3.90;99.90;;;;;;5052594;28;20169;-74
2021/01/01 10:31:26;;;;;;;46.57;25.53;;;3.90;99.90;;;;;;5052712;28;20239;-75
2021/01/01 10:33:51;;;;;;;44.87;28.23;;;3.70;99.90;;;;;;5051286;28;20544;-74
2021/01/01 10:36:17;;;;;;;44.30;27.53;;;3.70;99.90;;;;;;5051082;28;20259;-75
2021/01/01 10:38:43;;;;;;;50.73;27.07;;;3.80;99.90;;;;;;5052962;28;20643;-74
2021/01/01 10:41:12;;;;;;;49.93;27.80;;;3.70;99.90;;;;;;5052740;28;20250;-74
2021/01/01 10:43:38;;;;;;;45.15;28.88;;;3.70;99.90;;;;;;5052434;28;20212;-75
2021/01/01 10:46:04;;;;;;;51.97;32.30;;;3.80;99.90;;;;;;5052120;28;20224;-73
2021/01/01 10:48:29;;;;;;;52.60;31.73;;;3.60;99.90;;;;;;5053805;28;20467;-74
2021/01/01 10:50:55;;;;;;;52.40;28.70;;;3.80;99.90;;;;;;5056277;28;20204;-74
2021/01/01 10:53:20;;;;;;;46.23;27.67;;;4.00;99.90;;;;;;5056136;28;20174;-74
2021/01/01 10:55:46;;;;;;;45.67;28.27;;;4.00;99.90;;;;;;5055679;28;20611;-74
2021/01/01 10:58:14;;;;;;;49.10;25.23;;;4.40;99.90;;;;;;5054927;28;20315;-74
2021/01/01 11:00:40;;;;;;;41.60;24.45;;;4.50;99.90;;;;;;5056374;28;20416;-74
2021/01/01 11:03:05;;;;;;;39.40;22.90;;;4.80;99.90;;;;;;5050119;28;20511;-74
2021/01/01 11:05:31;;;;;;;38.50;23.50;;;5.10;99.90;;;;;;5055501;28;20191;-77
2021/01/01 11:07:56;;;;;;;36.87;24.07;;;5.30;99.90;;;;;;5046886;28;20206;-77
2021/01/01 11:10:22;;;;;;;36.27;23.63;;;5.20;99.90;;;;;;5044398;28;20172;-76
2021/01/01 11:12:48;;;;;;;42.00;23.90;;;5.50;99.90;;;;;;5036000;28;20174;-76
2021/01/01 12:21:37;;;;;;;34.78;22.45;;;5.70;99.90;;;;;;5045523;28;20185;-73
2021/01/01 12:26:26;;;;;;;35.95;23.27;;;5.80;99.90;;;;;;5053666;28;20193;-74
2021/01/01 12:28:52;;;;;;;35.47;20.57;;;5.60;99.90;;;;;;5054235;28;20177;-75
2021/01/01 12:31:18;;;;;;;66.50;37.60;;;5.90;99.90;;;;;;5054322;28;20168;-75
2021/01/01 12:33:44;;;;;;;32.35;21.75;;;6.10;99.90;;;;;;5037674;28;20178;-74
2021/01/01 12:36:09;;;;;;;39.17;21.13;;;6.30;99.90;;;;;;5033927;28;20217;-76
2021/01/01 12:38:35;;;;;;;39.40;23.83;;;6.30;99.90;;;;;;5042743;28;20259;-75
2021/01/01 12:41:01;;;;;;;32.37;22.37;;;6.10;99.90;;;;;;5054358;28;20640;-77
2021/01/01 12:43:26;;;;;;;29.20;19.97;;;6.10;99.90;;;;;;5051406;28;20169;-76
2021/01/01 12:45:52;;;;;;;32.33;20.87;;;6.10;99.90;;;;;;5044255;28;20430;-76
2021/01/01 12:48:17;;;;;;;31.90;19.30;;;6.30;99.90;;;;;;5046074;28;20231;-75
2021/01/01 12:50:43;;;;;;;27.53;18.10;;;6.20;99.90;;;;;;5053878;28;20230;-76
2021/01/01 12:53:09;;;;;;;27.80;18.07;;;6.30;99.90;;;;;;5054019;28;20263;-76
2021/01/01 12:55:34;;;;;;;29.83;18.70;;;6.50;99.90;;;;;;5053602;28;20543;-76
2021/01/01 12:58:04;;;;;;;31.60;19.33;;;6.60;99.90;;;;;;5053736;28;20161;-75
2021/01/01 13:00:29;;;;;;;27.45;18.92;;;6.60;99.90;;;;;;5053869;28;20194;-76
2021/01/01 13:02:55;;;;;;;29.83;18.97;;;6.50;99.90;;;;;;5053528;28;20190;-75
2021/01/01 13:05:20;;;;;;;29.20;18.47;;;6.40;99.90;;;;;;5053532;28;20664;-75
2021/01/01 13:07:46;;;;;;;28.80;19.03;;;6.80;99.90;;;;;;5048729;28;20205;-75
2021/01/01 13:10:12;;;;;;;23.57;16.97;;;7.00;99.90;;;;;;5053441;28;20607;-73
2021/01/01 13:12:38;;;;;;;29.80;19.77;;;6.90;99.90;;;;;;5053559;28;20177;-75
2021/01/01 13:15:05;;;;;;;31.98;18.85;;;7.10;99.90;;;;;;5053500;28;20216;-74
2021/01/01 13:17:32;;;;;;;26.50;17.08;;;7.20;99.90;;;;;;5053014;28;20229;-73
2021/01/01 13:19:58;;;;;;;25.63;18.50;;;7.10;99.90;;;;;;5053421;28;20176;-75
2021/01/01 13:22:23;;;;;;;25.80;17.40;;;7.10;99.90;;;;;;5053439;28;20531;-76
2021/01/01 13:24:49;;;;;;;25.97;15.93;;;7.30;99.90;;;;;;5053266;28;20187;-76
2021/01/01 13:27:15;;;;;;;22.10;16.20;;;7.40;99.90;;;;;;5052808;28;20678;-74
2021/01/01 13:29:41;;;;;;;23.67;15.07;;;7.30;99.90;;;;;;5051951;28;20503;-76
2021/01/01 13:32:06;;;;;;;30.47;15.57;;;7.50;99.90;;;;;;5052090;28;20418;-76
2021/01/01 13:34:32;;;;;;;25.37;16.00;;;7.30;99.90;;;;;;5053381;28;20251;-76
2021/01/01 13:36:57;;;;;;;22.93;15.40;;;7.10;99.90;;;;;;5052727;28;20273;-75
2021/01/01 13:39:23;;;;;;;24.60;15.80;;;7.00;99.90;;;;;;5053248;28;20181;-76
2021/01/01 13:41:50;;;;;;;25.63;15.20;;;7.30;99.90;;;;;;5053200;28;20172;-75
2021/01/01 13:44:16;;;;;;;25.80;16.35;;;7.50;99.90;;;;;;5053206;28;20267;-77
2021/01/01 13:46:41;;;;;;;21.53;14.90;;;7.30;99.90;;;;;;5052604;28;20669;-75
2021/01/01 13:49:07;;;;;;;22.27;15.17;;;7.30;99.90;;;;;;5052935;28;20185;-75